Skip Navigation Links Skip Navigation Links

Current Weather

Santacruz Apt, Mumbai (Bombay), India

For information only: do not use for flight planning or navigation.
Latest weather
Observation time Monday, December 18, 2017 4:00 AM IST
Local time Monday, December 18, 2017 4:42 AM IST
Flight conditions Instrument Meteorological Conditions
Winds
Wind speed calm
Visibility 2.2 mi.
Present weather smoke
Sky condition
Ceiling unlimited
Temperature 77°F
Dewpoint 55°F
Altimeter 29.97 in.Hg
Derived measurements
Relative humidity 47%
Heat index 77°F
Density altitude 1355 ft.
Remarks
No significant changes expected in the next two hours.
METAR VABB 172230Z 00000KT 3500 FU NSC 25/13 Q1015 NOSIG

Settings

Location code

InnerDrive.Weather 4.0.6144.1 Release CLR 4.0.30319.36366
Copyright ©2015 Inner Drive Technology. All rights reserved. Portions Copyright ©1986-2015 David Braverman.

Find weather

Site navigation


Skip Navigation Links

Place info

Page info

PayPal - The safer, easier way to pay online!

Return home.

Copyright ©2017 Inner Drive Technology. Purveyors of fine, hand-crafted computer software. Page printed 2017-12-17T23:12:19 UTC.